createdAt,value
2024-02-11T00:02:07.829Z,15.83
2024-02-11T00:04:34.899Z,14.30
2024-02-11T00:07:01.947Z,15.70
2024-02-11T00:09:29.015Z,16.33
2024-02-11T00:11:57.149Z,15.20
2024-02-11T00:14:24.236Z,14.80
2024-02-11T00:16:51.250Z,15.70
2024-02-11T00:19:18.169Z,16.97
2024-02-11T00:21:45.104Z,16.87
2024-02-11T00:24:12.023Z,16.83
2024-02-11T00:26:39.009Z,17.40
2024-02-11T00:29:05.986Z,18.17
2024-02-11T00:31:33.006Z,17.37
2024-02-11T00:34:00.114Z,22.57
2024-02-11T00:36:27.143Z,18.43
2024-02-11T00:38:54.030Z,21.60
2024-02-11T00:41:20.960Z,19.30
2024-02-11T00:43:47.907Z,19.90
2024-02-11T00:46:14.841Z,19.47
2024-02-11T00:48:41.935Z,19.20
2024-02-11T00:51:09.059Z,26.13
2024-02-11T00:53:35.990Z,18.65
2024-02-11T00:56:02.994Z,20.30
2024-02-11T00:58:30.070Z,33.27
2024-02-11T01:00:57.070Z,20.23
2024-02-11T01:03:24.025Z,24.73
2024-02-11T01:05:51.170Z,23.90
2024-02-11T01:08:18.395Z,22.43
2024-02-11T01:10:45.459Z,22.37
2024-02-11T01:13:12.467Z,21.97
2024-02-11T01:15:39.387Z,26.90
2024-02-11T01:18:06.543Z,22.10
2024-02-11T01:20:33.607Z,20.70
2024-02-11T01:23:00.609Z,26.20
2024-02-11T01:25:27.593Z,21.07
2024-02-11T01:27:54.497Z,26.80
2024-02-11T01:30:21.516Z,20.63
2024-02-11T01:32:48.517Z,27.60
2024-02-11T01:35:15.716Z,20.90
2024-02-11T01:37:42.784Z,22.10
2024-02-11T01:40:15.732Z,21.67
2024-02-11T01:42:43.466Z,23.93
2024-02-11T01:45:10.519Z,21.53
2024-02-11T01:47:37.819Z,24.43
2024-02-11T01:50:07.505Z,20.73
2024-02-11T01:52:35.010Z,21.43
2024-02-11T01:55:02.264Z,21.00
2024-02-11T01:57:29.276Z,21.13
2024-02-11T01:59:56.347Z,22.93
2024-02-11T02:02:28.199Z,23.17
2024-02-11T02:04:56.094Z,22.33
2024-02-11T02:07:23.236Z,25.70
2024-02-11T02:09:53.653Z,25.87
2024-02-11T02:12:20.810Z,27.50
2024-02-11T02:14:49.673Z,22.60
2024-02-11T02:17:16.760Z,26.43
2024-02-11T02:19:43.725Z,26.50
2024-02-11T02:22:11.953Z,25.03
2024-02-11T02:24:38.905Z,24.53
2024-02-11T02:27:06.127Z,26.17
2024-02-11T02:29:33.330Z,20.50
2024-02-11T02:32:00.443Z,22.23
2024-02-11T02:34:27.453Z,20.20
2024-02-11T02:36:54.411Z,21.90
2024-02-11T02:39:21.977Z,19.90
2024-02-11T02:41:48.935Z,20.67
2024-02-11T02:44:16.032Z,23.20
2024-02-11T02:46:43.155Z,20.83
2024-02-11T02:49:10.256Z,21.60
2024-02-11T02:51:37.161Z,22.00
2024-02-11T02:54:04.173Z,24.33
2024-02-11T02:56:31.527Z,25.50
2024-02-11T02:58:58.537Z,22.97
2024-02-11T03:01:26.124Z,28.27
2024-02-11T03:03:54.179Z,23.70
2024-02-11T03:06:21.172Z,24.53
2024-02-11T03:08:48.240Z,22.03
2024-02-11T03:11:15.236Z,23.80
2024-02-11T03:13:42.293Z,28.83
2024-02-11T03:16:09.236Z,24.33
2024-02-11T03:18:36.211Z,26.10
2024-02-11T03:21:03.264Z,20.03
2024-02-11T03:23:30.190Z,26.50
2024-02-11T03:25:57.099Z,21.70
2024-02-11T03:28:24.017Z,19.83
2024-02-11T03:30:50.903Z,24.00
2024-02-11T03:33:17.893Z,20.00
2024-02-11T03:35:44.846Z,22.97
2024-02-11T03:38:11.908Z,22.07
2024-02-11T03:40:39.034Z,20.97
2024-02-11T03:43:06.018Z,22.13
2024-02-11T03:45:32.980Z,23.63
2024-02-11T03:47:59.975Z,21.20
2024-02-11T03:50:27.002Z,23.80
2024-02-11T03:52:53.907Z,22.60
2024-02-11T03:55:20.860Z,20.13
2024-02-11T03:57:47.765Z,20.80
2024-02-11T04:00:15.365Z,19.83
2024-02-11T04:02:42.273Z,20.30
2024-02-11T04:05:09.395Z,18.10
2024-02-11T04:07:36.400Z,19.53
2024-02-11T04:10:03.415Z,19.40
2024-02-11T04:12:30.348Z,20.07
2024-02-11T04:14:57.261Z,21.67
2024-02-11T04:17:24.136Z,17.77
2024-02-11T04:19:51.074Z,16.53
2024-02-11T04:22:18.106Z,17.50
2024-02-11T04:24:45.747Z,18.83
2024-02-11T04:27:15.387Z,17.80
2024-02-11T04:29:42.319Z,16.73
2024-02-11T04:32:09.307Z,19.67
2024-02-11T04:34:36.345Z,20.63
2024-02-11T04:37:03.350Z,16.63
2024-02-11T04:39:30.453Z,17.93
2024-02-11T04:41:57.394Z,17.00
2024-02-11T04:44:24.289Z,17.80
2024-02-11T04:46:51.260Z,16.77
2024-02-11T04:49:18.207Z,17.20
2024-02-11T04:51:45.191Z,15.93
2024-02-11T04:54:12.063Z,19.70
2024-02-11T04:56:39.053Z,16.30
2024-02-11T04:59:06.054Z,15.63
2024-02-11T05:01:33.135Z,16.50
2024-02-11T05:04:00.139Z,16.47
2024-02-11T05:06:27.262Z,18.27
2024-02-11T05:08:54.475Z,18.63
2024-02-11T05:11:21.498Z,20.53
2024-02-11T05:13:48.540Z,18.50
2024-02-11T05:16:15.598Z,16.97
2024-02-11T05:18:43.050Z,16.80
2024-02-11T05:21:10.625Z,18.57
2024-02-11T05:23:38.466Z,19.07
2024-02-11T05:26:05.774Z,15.73
2024-02-11T05:28:33.377Z,17.60
2024-02-11T05:31:00.326Z,16.73
2024-02-11T05:33:27.339Z,17.33
2024-02-11T05:35:54.486Z,19.43
2024-02-11T05:38:22.195Z,15.17
2024-02-11T05:40:49.695Z,16.90
2024-02-11T05:43:16.863Z,15.73
2024-02-11T05:45:44.931Z,14.17
2024-02-11T05:48:13.655Z,16.03
2024-02-11T05:50:41.631Z,13.73
2024-02-11T05:53:08.724Z,14.20
2024-02-11T05:55:36.127Z,13.43
2024-02-11T05:58:04.267Z,15.20
2024-02-11T06:00:31.260Z,14.30
2024-02-11T06:02:59.251Z,13.10
2024-02-11T06:05:26.818Z,14.30
2024-02-11T06:07:58.181Z,13.80
2024-02-11T06:10:26.291Z,13.43
2024-02-11T06:12:53.870Z,13.20
2024-02-11T06:15:21.679Z,12.73
2024-02-11T06:17:53.620Z,15.27
2024-02-11T06:20:22.670Z,13.47
2024-02-11T06:22:51.687Z,11.87
2024-02-11T06:25:20.136Z,12.00
2024-02-11T06:27:47.541Z,12.03
2024-02-11T06:30:14.787Z,11.97
2024-02-11T06:32:44.592Z,11.90
2024-02-11T06:35:11.922Z,11.37
2024-02-11T06:37:40.467Z,9.20
2024-02-11T06:40:10.215Z,9.50
2024-02-11T06:42:37.227Z,9.50
2024-02-11T06:45:05.815Z,7.83
2024-02-11T06:47:33.379Z,9.10
2024-02-11T06:50:00.551Z,7.70
2024-02-11T06:52:27.497Z,8.50
2024-02-11T06:54:54.474Z,9.63
2024-02-11T06:57:21.715Z,10.40
2024-02-11T06:59:48.635Z,11.23
2024-02-11T07:02:16.162Z,10.13
2024-02-11T07:04:44.584Z,11.13
2024-02-11T07:07:11.542Z,10.63
2024-02-11T07:09:38.446Z,10.67
2024-02-11T07:12:05.801Z,10.27
2024-02-11T07:14:32.767Z,10.70
2024-02-11T07:16:59.832Z,11.30
2024-02-11T07:19:26.745Z,12.23
2024-02-11T07:21:53.864Z,14.90
2024-02-11T07:24:21.759Z,10.80
2024-02-11T07:26:48.935Z,15.00
2024-02-11T07:29:17.466Z,14.70
2024-02-11T07:31:44.439Z,13.67
2024-02-11T07:34:11.496Z,14.53
2024-02-11T07:36:39.364Z,12.87
2024-02-11T07:39:06.260Z,15.87
2024-02-11T07:41:33.212Z,16.30
2024-02-11T07:44:02.590Z,17.60
2024-02-11T07:46:29.539Z,18.93
2024-02-11T07:48:56.486Z,17.90
2024-02-11T07:51:23.468Z,15.50
2024-02-11T07:53:50.514Z,16.77
2024-02-11T07:56:17.661Z,17.20
2024-02-11T07:58:45.457Z,15.37
2024-02-11T08:01:12.887Z,17.10
2024-02-11T08:03:40.024Z,17.37
2024-02-11T08:06:08.211Z,17.40
2024-02-11T08:08:35.155Z,17.37
2024-02-11T08:11:02.120Z,19.33
2024-02-11T08:13:29.116Z,19.13
2024-02-11T08:15:56.095Z,16.67
2024-02-11T08:18:23.090Z,18.10
2024-02-11T08:20:50.155Z,18.93
2024-02-11T08:23:17.076Z,20.03
2024-02-11T08:25:44.076Z,14.97
2024-02-11T08:28:11.243Z,10.77
2024-02-11T08:30:38.136Z,10.17
2024-02-11T08:33:05.274Z,10.37
2024-02-11T08:35:32.290Z,8.07
2024-02-11T08:37:59.892Z,7.13
2024-02-11T08:40:26.888Z,8.73
2024-02-11T08:42:53.832Z,8.00
2024-02-11T08:45:20.765Z,6.10
2024-02-11T08:47:47.758Z,5.97
2024-02-11T08:50:14.787Z,5.53
2024-02-11T08:52:45.687Z,3.47
2024-02-11T08:55:12.933Z,5.37
2024-02-11T08:57:39.954Z,5.00
2024-02-11T09:00:08.132Z,3.00
2024-02-11T09:02:35.126Z,1.73
2024-02-11T09:05:02.382Z,1.80
2024-02-11T09:07:29.480Z,1.43
2024-02-11T09:09:56.941Z,1.33
2024-02-11T09:12:23.837Z,2.00
2024-02-11T09:14:50.709Z,2.37
2024-02-11T09:17:17.829Z,1.30
2024-02-11T09:19:44.759Z,1.37
2024-02-11T09:22:11.709Z,0.93
2024-02-11T09:24:38.674Z,1.13
2024-02-11T09:27:06.366Z,1.10
2024-02-11T09:29:33.357Z,1.63
2024-02-11T09:32:00.383Z,1.40
2024-02-11T09:34:27.334Z,1.30
2024-02-11T09:36:55.011Z,1.30
2024-02-11T09:39:23.451Z,1.13
2024-02-11T09:41:51.636Z,1.37
2024-02-11T09:44:22.473Z,1.47
2024-02-11T09:46:56.451Z,1.17
2024-02-11T09:49:26.349Z,1.30
2024-02-11T09:51:55.743Z,2.00
2024-02-11T09:54:23.245Z,1.37
2024-02-11T09:56:50.116Z,1.50
2024-02-11T09:59:17.741Z,1.20
2024-02-11T10:01:45.435Z,1.17
2024-02-11T10:04:14.641Z,1.83
2024-02-11T10:06:44.805Z,1.50
2024-02-11T10:09:11.665Z,1.80
2024-02-11T10:11:39.863Z,1.60
2024-02-11T10:14:07.715Z,1.10
2024-02-11T10:16:36.626Z,1.53
2024-02-11T10:19:03.599Z,1.60
2024-02-11T10:21:30.547Z,4.40
2024-02-11T10:23:57.511Z,1.20
2024-02-11T10:26:24.581Z,1.20
2024-02-11T10:28:51.726Z,1.50
2024-02-11T10:31:18.673Z,1.67
2024-02-11T10:33:45.802Z,1.20
2024-02-11T10:36:12.895Z,1.83
2024-02-11T10:38:39.975Z,1.40
2024-02-11T10:41:07.817Z,1.70
2024-02-11T10:43:35.431Z,1.93
2024-02-11T10:46:02.382Z,2.40
2024-02-11T10:48:29.747Z,1.70
2024-02-11T10:51:02.783Z,1.93
2024-02-11T10:53:37.157Z,1.87
2024-02-11T10:56:07.348Z,1.87
2024-02-11T10:58:49.194Z,1.80
2024-02-11T11:01:19.454Z,1.40
2024-02-11T11:03:48.562Z,1.20
2024-02-11T11:06:18.660Z,1.90
2024-02-11T11:08:47.880Z,13.00
2024-02-11T11:11:25.992Z,3.70
2024-02-11T11:13:55.196Z,1.60
2024-02-11T11:16:27.998Z,1.80
2024-02-11T11:18:55.482Z,1.93
2024-02-11T11:21:22.651Z,2.10
2024-02-11T11:23:49.705Z,1.30
2024-02-11T11:26:20.894Z,2.10
2024-02-11T11:28:47.973Z,1.50
2024-02-11T11:31:15.149Z,1.50
2024-02-11T11:33:42.257Z,1.93
2024-02-11T11:36:09.705Z,1.30
2024-02-11T11:38:36.655Z,2.00
2024-02-11T11:41:04.158Z,1.97
2024-02-11T11:43:31.183Z,2.60
2024-02-11T11:46:02.315Z,2.40
2024-02-11T11:48:29.896Z,2.60
2024-02-11T11:50:59.078Z,2.23
2024-02-11T11:53:27.141Z,2.37
2024-02-11T11:55:56.737Z,1.90
2024-02-11T11:58:29.054Z,2.27
2024-02-11T12:01:02.776Z,2.10
2024-02-11T12:03:31.185Z,2.37
2024-02-11T12:05:59.369Z,2.30
2024-02-11T12:08:28.862Z,1.90
2024-02-11T12:11:01.503Z,1.90
2024-02-11T12:13:32.221Z,2.37
2024-02-11T12:16:05.810Z,2.30
2024-02-11T12:18:33.992Z,2.83
2024-02-11T12:21:02.170Z,2.40
2024-02-11T12:23:32.772Z,1.77
2024-02-11T12:26:00.800Z,1.67
2024-02-11T12:28:29.564Z,2.13
2024-02-11T12:31:14.217Z,2.10
2024-02-11T12:33:47.672Z,2.17
2024-02-11T12:36:20.449Z,1.80
2024-02-11T12:38:48.040Z,1.83
2024-02-11T12:41:16.653Z,2.00
2024-02-11T12:43:45.120Z,1.93
2024-02-11T12:46:12.451Z,2.10
2024-02-11T12:48:45.270Z,2.70
2024-02-11T12:51:15.384Z,2.00
2024-02-11T12:53:43.490Z,2.13
2024-02-11T12:56:11.349Z,2.27
2024-02-11T12:58:42.971Z,2.87
2024-02-11T13:01:11.071Z,2.00
2024-02-11T13:03:42.126Z,2.93
2024-02-11T13:06:10.198Z,2.77
2024-02-11T13:08:39.602Z,3.07
2024-02-11T13:11:07.043Z,2.80
2024-02-11T13:13:34.241Z,2.70
2024-02-11T13:16:01.424Z,2.70
2024-02-11T13:18:28.800Z,3.13
2024-02-11T13:20:56.131Z,2.70
2024-02-11T13:23:23.398Z,3.03
2024-02-11T13:25:50.555Z,3.40
2024-02-11T13:28:18.461Z,3.33
2024-02-11T13:30:45.635Z,3.57
2024-02-11T13:33:13.346Z,3.57
2024-02-11T13:35:40.438Z,3.37
2024-02-11T13:38:07.757Z,3.60
2024-02-11T13:40:34.889Z,3.20
2024-02-11T13:43:02.667Z,3.70
2024-02-11T13:45:29.732Z,4.30
2024-02-11T13:47:57.698Z,3.40
2024-02-11T13:50:24.749Z,3.47
2024-02-11T13:52:51.869Z,4.23
2024-02-11T13:55:19.157Z,4.33
2024-02-11T13:57:46.147Z,4.20
2024-02-11T14:00:14.474Z,3.57
2024-02-11T14:02:41.595Z,3.47
2024-02-11T14:05:08.621Z,3.37
2024-02-11T14:07:35.728Z,4.00
2024-02-11T14:10:02.842Z,3.73
2024-02-11T14:12:29.802Z,3.00
2024-02-11T14:14:57.258Z,4.00
2024-02-11T14:17:24.549Z,4.30
2024-02-11T14:19:51.622Z,3.70
2024-02-11T14:22:18.637Z,4.20
2024-02-11T14:24:45.591Z,4.10
2024-02-11T14:27:12.538Z,4.50
2024-02-11T14:29:39.479Z,4.30
2024-02-11T14:32:07.572Z,4.73
2024-02-11T14:34:34.568Z,3.87
2024-02-11T14:37:02.882Z,4.67
2024-02-11T14:39:30.006Z,4.20
2024-02-11T14:41:57.047Z,4.10
2024-02-11T14:44:24.187Z,3.57
2024-02-11T14:46:53.409Z,4.17
2024-02-11T14:49:21.627Z,3.10
2024-02-11T14:51:48.695Z,4.00
2024-02-11T14:54:15.700Z,3.40
2024-02-11T14:56:42.610Z,3.23
2024-02-11T14:59:10.345Z,3.40
2024-02-11T15:01:38.627Z,4.10
2024-02-11T15:04:06.366Z,3.80
2024-02-11T15:06:33.543Z,4.10
2024-02-11T15:09:00.720Z,4.10
2024-02-11T15:11:27.739Z,4.07
2024-02-11T15:13:55.026Z,3.57
2024-02-11T15:16:22.021Z,4.27
2024-02-11T15:18:49.068Z,5.13
2024-02-11T15:21:16.181Z,5.07
2024-02-11T15:23:43.184Z,4.57
2024-02-11T15:26:10.134Z,4.27
2024-02-11T15:28:38.277Z,4.40
2024-02-11T15:31:05.358Z,4.50
2024-02-11T15:33:32.494Z,4.20
2024-02-11T15:35:59.668Z,6.00
2024-02-11T15:38:27.533Z,4.40
2024-02-11T15:40:55.493Z,4.30
2024-02-11T15:43:22.417Z,4.30
2024-02-11T15:45:49.443Z,4.07
2024-02-11T15:48:17.347Z,4.47
2024-02-11T15:50:44.638Z,5.30
2024-02-11T15:53:11.703Z,4.33
2024-02-11T15:55:38.670Z,4.33
2024-02-11T15:58:05.764Z,5.43
2024-02-11T16:00:32.895Z,5.20
2024-02-11T16:03:00.091Z,5.30
2024-02-11T16:05:27.153Z,5.07
2024-02-11T16:07:54.341Z,5.70
2024-02-11T16:10:21.355Z,5.20
2024-02-11T16:12:49.417Z,6.10
2024-02-11T16:15:16.382Z,4.73
2024-02-11T16:17:44.552Z,5.10
2024-02-11T16:20:12.945Z,4.93
2024-02-11T16:22:41.047Z,5.10
2024-02-11T16:25:08.252Z,5.50
2024-02-11T16:27:35.195Z,5.37
2024-02-11T16:30:02.388Z,6.10
2024-02-11T16:32:29.472Z,7.90
2024-02-11T16:34:56.460Z,6.43
2024-02-11T16:37:23.446Z,6.10
2024-02-11T16:39:50.346Z,5.40
2024-02-11T16:42:17.962Z,7.37
2024-02-11T16:44:45.278Z,5.80
2024-02-11T16:47:12.378Z,6.07
2024-02-11T16:49:39.369Z,5.23
2024-02-11T16:52:06.344Z,6.00
2024-02-11T16:54:33.980Z,5.73
2024-02-11T16:57:00.891Z,6.33
2024-02-11T16:59:28.410Z,5.13
2024-02-11T17:01:55.584Z,6.90
2024-02-11T17:04:23.060Z,6.07
2024-02-11T17:06:50.008Z,5.90
2024-02-11T17:09:17.190Z,5.20
2024-02-11T17:11:45.363Z,6.03
2024-02-11T17:14:12.406Z,4.63
2024-02-11T17:16:40.005Z,4.00
2024-02-11T17:19:07.061Z,3.87
2024-02-11T17:21:34.149Z,4.10
2024-02-11T17:24:02.629Z,4.50
2024-02-11T17:26:29.820Z,5.20
2024-02-11T17:28:57.348Z,5.17
2024-02-11T17:31:28.232Z,4.80
2024-02-11T17:33:56.333Z,5.17
2024-02-11T17:36:23.597Z,4.67
2024-02-11T17:38:50.536Z,4.70
2024-02-11T17:41:17.615Z,5.00
2024-02-11T17:43:44.904Z,4.07
2024-02-11T17:46:11.818Z,4.97
2024-02-11T17:48:44.140Z,5.60
2024-02-11T17:51:11.144Z,5.90
2024-02-11T17:53:44.880Z,5.33
2024-02-11T17:56:17.044Z,4.80
2024-02-11T17:58:44.447Z,4.67
2024-02-11T18:01:11.447Z,5.10
2024-02-11T18:03:38.454Z,6.17
2024-02-11T18:06:05.779Z,5.73
2024-02-11T18:08:32.782Z,6.20
2024-02-11T18:10:59.791Z,7.80
2024-02-11T18:13:26.813Z,6.43
2024-02-11T18:15:53.749Z,5.30
2024-02-11T18:18:20.727Z,4.80
2024-02-11T18:20:47.692Z,5.23
2024-02-11T18:23:14.726Z,5.20
2024-02-11T18:25:55.020Z,6.23
2024-02-11T18:28:28.689Z,5.77
2024-02-11T18:30:55.710Z,5.73
2024-02-11T18:33:22.770Z,6.00
2024-02-11T18:35:49.792Z,6.27
2024-02-11T18:38:17.029Z,5.77
2024-02-11T18:40:44.540Z,6.47
2024-02-11T18:43:11.757Z,5.83
2024-02-11T18:45:38.829Z,5.70
2024-02-11T18:48:06.394Z,5.90
2024-02-11T18:50:33.563Z,6.60
2024-02-11T18:53:00.596Z,5.60
2024-02-11T18:55:27.666Z,5.37
2024-02-11T18:57:54.608Z,6.10
2024-02-11T19:00:21.885Z,6.47
2024-02-11T19:02:49.913Z,6.80
2024-02-11T19:05:17.620Z,7.10
2024-02-11T19:07:45.066Z,7.43
2024-02-11T19:10:15.495Z,8.30
2024-02-11T19:12:42.597Z,6.67
2024-02-11T19:15:09.801Z,6.90
2024-02-11T19:17:37.540Z,8.80
2024-02-11T19:20:05.832Z,7.13
2024-02-11T19:22:33.848Z,6.30
2024-02-11T19:25:01.868Z,5.70
2024-02-11T19:27:29.030Z,6.80
2024-02-11T19:29:56.775Z,7.03
2024-02-11T19:32:24.893Z,7.00
2024-02-11T19:34:51.994Z,7.13
2024-02-11T19:37:18.992Z,6.73
2024-02-11T19:39:46.324Z,6.20
2024-02-11T19:42:13.296Z,5.00
2024-02-11T19:44:40.399Z,5.77
2024-02-11T19:47:07.679Z,6.97
2024-02-11T19:49:34.778Z,5.60
2024-02-11T19:52:02.009Z,6.73
2024-02-11T19:54:28.935Z,6.70
2024-02-11T19:56:55.955Z,5.87
2024-02-11T19:59:22.922Z,6.47
2024-02-11T20:01:49.852Z,6.67
2024-02-11T20:04:16.885Z,6.17
2024-02-11T20:06:43.905Z,6.00
2024-02-11T20:09:10.990Z,6.13
2024-02-11T20:11:44.448Z,6.67
2024-02-11T20:14:11.598Z,5.93
2024-02-11T20:16:41.184Z,5.20
2024-02-11T20:19:09.812Z,7.03
2024-02-11T20:21:38.195Z,7.57
2024-02-11T20:24:06.154Z,6.20
2024-02-11T20:26:33.627Z,6.13
2024-02-11T20:29:00.635Z,7.10
2024-02-11T20:31:27.792Z,5.77
2024-02-11T20:33:54.809Z,4.30
2024-02-11T20:36:21.769Z,6.27
2024-02-11T20:38:48.914Z,5.40
2024-02-11T20:41:19.593Z,5.03
2024-02-11T20:43:46.678Z,5.13
2024-02-11T20:46:13.679Z,4.83
2024-02-11T20:48:41.688Z,5.33
2024-02-11T20:51:08.908Z,5.27
2024-02-11T20:53:36.108Z,4.53
2024-02-11T20:56:03.067Z,5.60
2024-02-11T20:58:32.148Z,4.83
2024-02-11T21:00:59.271Z,6.00
2024-02-11T21:03:26.285Z,4.87
2024-02-11T21:05:53.254Z,4.70
2024-02-11T21:08:20.475Z,4.23
2024-02-11T21:10:47.421Z,4.70
2024-02-11T21:13:14.420Z,5.07
2024-02-11T21:15:41.364Z,5.00
2024-02-11T21:18:08.591Z,5.07
2024-02-11T21:20:35.785Z,4.50
2024-02-11T21:23:02.919Z,5.00
2024-02-11T21:25:29.800Z,4.73
2024-02-11T21:27:58.441Z,4.73
2024-02-11T21:30:26.700Z,4.93
2024-02-11T21:32:53.900Z,5.07
2024-02-11T21:35:21.564Z,5.23
2024-02-11T21:37:48.516Z,4.27
2024-02-11T21:40:15.488Z,4.40
2024-02-11T21:42:43.161Z,4.47
2024-02-11T21:45:11.120Z,4.50
2024-02-11T21:47:39.911Z,3.83
2024-02-11T21:50:08.328Z,4.97
2024-02-11T21:52:35.305Z,6.90
2024-02-11T21:55:02.218Z,4.10
2024-02-11T21:57:29.161Z,6.30
2024-02-11T21:59:56.055Z,4.03
2024-02-11T22:02:23.109Z,4.17
2024-02-11T22:04:50.384Z,3.97
2024-02-11T22:07:17.483Z,4.23
2024-02-11T22:09:44.339Z,4.30
2024-02-11T22:12:11.248Z,3.83
2024-02-11T22:14:38.168Z,3.87
2024-02-11T22:17:05.299Z,3.90
2024-02-11T22:19:32.312Z,4.10
2024-02-11T22:21:59.263Z,3.73
2024-02-11T22:24:26.120Z,6.93
2024-02-11T22:26:53.057Z,3.13
2024-02-11T22:29:19.964Z,3.93
2024-02-11T22:31:46.897Z,3.60
2024-02-11T22:34:13.861Z,3.67
2024-02-11T22:36:40.856Z,3.43
2024-02-11T22:39:07.868Z,3.23
2024-02-11T22:41:34.792Z,3.03
2024-02-11T22:44:01.807Z,3.67
2024-02-11T22:46:28.811Z,7.23
2024-02-11T22:48:55.882Z,3.83
2024-02-11T22:51:22.997Z,4.37
2024-02-11T22:53:49.934Z,4.00
2024-02-11T22:56:16.846Z,3.87
2024-02-11T22:58:43.795Z,4.07
2024-02-11T23:01:10.742Z,4.70
2024-02-11T23:03:37.749Z,4.13
2024-02-11T23:06:05.266Z,3.77
2024-02-11T23:08:32.451Z,3.70
2024-02-11T23:10:59.870Z,3.83
2024-02-11T23:13:26.806Z,3.80
2024-02-11T23:15:53.749Z,4.13
2024-02-11T23:18:20.706Z,4.83
2024-02-11T23:20:47.809Z,3.70
2024-02-11T23:23:14.776Z,4.13
2024-02-11T23:25:41.651Z,4.43
2024-02-11T23:28:08.780Z,4.20
2024-02-11T23:30:35.707Z,4.40
2024-02-11T23:33:03.148Z,3.70
2024-02-11T23:35:30.102Z,3.67
2024-02-11T23:37:57.258Z,4.10
2024-02-11T23:40:24.278Z,4.67
2024-02-11T23:42:51.221Z,3.87
2024-02-11T23:45:18.119Z,4.00
2024-02-11T23:47:45.081Z,4.00
2024-02-11T23:50:12.074Z,4.53
2024-02-11T23:52:39.028Z,3.57
2024-02-11T23:55:06.482Z,3.70
2024-02-11T23:57:33.445Z,4.17
